createdAt,value
2023-05-10T00:00:15.210Z,18.50
2023-05-10T00:02:41.757Z,12.38
2023-05-10T00:05:08.446Z,12.60
2023-05-10T00:07:34.674Z,15.32
2023-05-10T00:10:00.986Z,17.42
2023-05-10T00:12:27.296Z,17.58
2023-05-10T00:14:53.599Z,24.90
2023-05-10T00:17:19.917Z,14.07
2023-05-10T00:19:46.253Z,19.05
2023-05-10T00:22:12.706Z,18.05
2023-05-10T00:24:38.957Z,14.77
2023-05-10T00:27:05.304Z,19.65
2023-05-10T00:29:32.656Z,26.00
2023-05-10T00:31:58.992Z,11.90
2023-05-10T00:34:25.686Z,15.75
2023-05-10T00:36:51.991Z,20.45
2023-05-10T00:39:18.268Z,15.48
2023-05-10T00:41:44.557Z,17.90
2023-05-10T00:44:11.093Z,18.92
2023-05-10T00:46:37.510Z,17.75
2023-05-10T00:49:03.942Z,70.90
2023-05-10T00:51:30.281Z,65.72
2023-05-10T00:53:56.995Z,18.55
2023-05-10T00:56:24.240Z,84.53
2023-05-10T00:58:50.533Z,76.60
2023-05-10T01:01:17.026Z,70.20
2023-05-10T01:03:43.539Z,72.30
2023-05-10T01:06:10.903Z,97.13
2023-05-10T01:08:37.420Z,78.20
2023-05-10T01:11:03.799Z,71.85
2023-05-10T01:13:32.716Z,70.38
2023-05-10T01:15:59.483Z,73.80
2023-05-10T01:18:26.208Z,90.05
2023-05-10T01:20:58.732Z,68.55
2023-05-10T01:23:45.225Z,82.65
2023-05-10T01:26:17.818Z,77.15
2023-05-10T01:28:58.457Z,68.28
2023-05-10T01:31:31.946Z,79.22
2023-05-10T01:34:13.825Z,66.10
2023-05-10T01:36:52.047Z,71.13
2023-05-10T01:39:23.495Z,72.85
2023-05-10T01:41:59.647Z,71.57
2023-05-10T01:44:32.183Z,74.68
2023-05-10T01:47:11.201Z,76.03
2023-05-10T01:49:56.281Z,63.13
2023-05-10T01:52:33.868Z,73.10
2023-05-10T01:55:05.899Z,78.35
2023-05-10T01:57:35.910Z,76.57
2023-05-10T02:00:04.434Z,77.03
2023-05-10T02:02:31.894Z,80.13
2023-05-10T02:04:59.039Z,84.82
2023-05-10T02:07:25.617Z,78.82
2023-05-10T02:09:52.328Z,79.88
2023-05-10T02:12:18.979Z,78.03
2023-05-10T02:14:46.200Z,78.65
2023-05-10T02:17:12.801Z,71.10
2023-05-10T02:19:39.945Z,70.70
2023-05-10T02:22:06.721Z,84.60
2023-05-10T02:24:33.571Z,24.83
2023-05-10T02:27:01.139Z,17.23
2023-05-10T02:29:28.388Z,10.40
2023-05-10T02:31:55.952Z,15.88
2023-05-10T02:34:22.950Z,12.35
2023-05-10T02:36:49.723Z,16.27
2023-05-10T02:39:16.871Z,18.63
2023-05-10T02:41:43.466Z,17.65
2023-05-10T02:44:10.582Z,13.77
2023-05-10T02:46:38.122Z,24.70
2023-05-10T02:49:04.754Z,16.63
2023-05-10T02:51:35.691Z,17.85
2023-05-10T02:54:10.315Z,18.67
2023-05-10T02:56:40.845Z,20.48
2023-05-10T02:59:07.170Z,16.77
2023-05-10T03:01:33.602Z,20.48
2023-05-10T03:03:59.906Z,26.17
2023-05-10T03:06:26.282Z,21.88
2023-05-10T03:08:52.615Z,31.02
2023-05-10T03:11:32.129Z,26.88
2023-05-10T03:14:17.444Z,27.45
2023-05-10T03:16:47.822Z,27.85
2023-05-10T03:19:18.582Z,26.00
2023-05-10T03:24:12.936Z,29.15
2023-05-10T03:26:39.702Z,29.75
2023-05-10T03:29:06.918Z,127.05
2023-05-10T03:31:33.483Z,37.08
2023-05-10T03:33:59.807Z,30.45
2023-05-10T03:36:26.131Z,24.90
2023-05-10T03:38:52.457Z,23.80
2023-05-10T03:41:18.812Z,35.15
2023-05-10T03:43:45.197Z,35.60
2023-05-10T03:46:11.648Z,28.10
2023-05-10T03:48:38.022Z,28.35
2023-05-10T03:51:04.411Z,28.45
2023-05-10T03:53:30.742Z,25.35
2023-05-10T03:55:57.060Z,22.65
2023-05-10T03:58:23.531Z,42.85
2023-05-10T04:00:49.806Z,23.63
2023-05-10T04:03:16.209Z,30.50
2023-05-10T04:05:42.620Z,20.98
2023-05-10T04:08:08.960Z,23.55
2023-05-10T04:10:35.238Z,21.15
2023-05-10T04:13:01.586Z,20.90
2023-05-10T04:15:27.851Z,31.83
2023-05-10T04:17:54.570Z,18.13
2023-05-10T04:20:20.950Z,23.48
2023-05-10T04:22:47.209Z,21.05
2023-05-10T04:25:13.493Z,24.30
2023-05-10T04:27:39.794Z,26.77
2023-05-10T04:30:06.509Z,34.67
2023-05-10T04:32:32.817Z,18.92
2023-05-10T04:34:59.188Z,17.83
2023-05-10T04:37:25.594Z,34.03
2023-05-10T04:39:51.844Z,13.48
2023-05-10T04:42:18.160Z,23.58
2023-05-10T04:44:44.517Z,22.63
2023-05-10T04:47:12.682Z,36.63
2023-05-10T04:49:39.272Z,44.67
2023-05-10T04:52:05.567Z,30.48
2023-05-10T04:54:31.804Z,26.98
2023-05-10T04:56:58.019Z,30.42
2023-05-10T04:59:24.284Z,37.65
2023-05-10T05:01:50.588Z,29.80
2023-05-10T05:04:16.920Z,38.83
2023-05-10T05:06:43.194Z,37.35
2023-05-10T05:09:11.079Z,43.17
2023-05-10T05:11:37.503Z,35.97
2023-05-10T05:14:03.980Z,39.63
2023-05-10T05:16:31.434Z,40.67
2023-05-10T05:18:58.040Z,46.83
2023-05-10T05:21:24.923Z,42.67
2023-05-10T05:23:51.229Z,57.50
2023-05-10T05:26:17.539Z,56.83
2023-05-10T05:28:43.983Z,45.83
2023-05-10T05:31:10.325Z,44.00
2023-05-10T05:33:37.077Z,51.35
2023-05-10T05:36:04.019Z,49.10
2023-05-10T05:38:30.313Z,44.33
2023-05-10T05:40:56.676Z,56.42
2023-05-10T05:43:23.025Z,45.97
2023-05-10T05:45:49.313Z,40.58
2023-05-10T05:48:15.809Z,44.13
2023-05-10T05:50:42.135Z,59.95
2023-05-10T05:53:08.955Z,56.22
2023-05-10T05:55:35.254Z,41.35
2023-05-10T05:58:01.643Z,39.13
2023-05-10T06:00:28.109Z,36.72
2023-05-10T06:02:54.525Z,46.58
2023-05-10T06:05:21.866Z,35.53
2023-05-10T06:07:48.189Z,32.25
2023-05-10T06:10:14.404Z,41.28
2023-05-10T06:12:40.683Z,39.70
2023-05-10T06:15:07.318Z,49.00
2023-05-10T06:17:33.736Z,32.70
2023-05-10T06:20:00.122Z,18.88
2023-05-10T06:22:26.460Z,29.33
2023-05-10T06:24:52.724Z,26.83
2023-05-10T06:27:19.102Z,24.10
2023-05-10T06:29:45.401Z,22.17
2023-05-10T06:32:11.688Z,22.30
2023-05-10T06:34:37.980Z,23.83
2023-05-10T06:37:04.497Z,18.73
2023-05-10T06:39:30.754Z,27.30
2023-05-10T06:41:57.060Z,27.08
2023-05-10T06:44:23.272Z,15.15
2023-05-10T06:46:49.577Z,29.80
2023-05-10T06:49:15.971Z,25.95
2023-05-10T06:51:42.263Z,21.17
2023-05-10T06:54:08.559Z,29.58
2023-05-10T06:56:34.849Z,33.55
2023-05-10T06:59:01.232Z,29.25
2023-05-10T07:01:27.643Z,22.58
2023-05-10T07:03:53.916Z,22.20
2023-05-10T07:06:32.271Z,21.55
2023-05-10T07:08:59.404Z,23.35
2023-05-10T07:11:25.769Z,23.10
2023-05-10T07:13:52.058Z,19.23
2023-05-10T07:16:18.373Z,13.90
2023-05-10T07:18:44.679Z,7.10
2023-05-10T07:21:11.414Z,6.18
2023-05-10T07:23:37.756Z,8.93
2023-05-10T07:26:04.235Z,8.98
2023-05-10T07:28:30.552Z,12.70
2023-05-10T07:30:57.179Z,9.35
2023-05-10T07:33:23.453Z,7.57
2023-05-10T07:35:50.667Z,8.40
2023-05-10T07:38:18.384Z,9.80
2023-05-10T07:40:44.819Z,8.80
2023-05-10T07:43:11.038Z,4.85
2023-05-10T07:45:37.276Z,4.70
2023-05-10T07:48:03.890Z,10.15
2023-05-10T07:50:30.272Z,3.42
2023-05-10T07:52:56.574Z,8.70
2023-05-10T07:55:23.104Z,6.30
2023-05-10T07:57:49.366Z,3.95
2023-05-10T08:00:20.075Z,8.82
2023-05-10T08:02:46.886Z,8.95
2023-05-10T08:05:13.382Z,8.10
2023-05-10T08:07:39.749Z,4.97
2023-05-10T08:10:06.344Z,7.07
2023-05-10T08:12:32.599Z,7.82
2023-05-10T08:14:58.996Z,11.05
2023-05-10T08:17:25.351Z,8.80
2023-05-10T08:19:51.561Z,9.57
2023-05-10T08:22:17.966Z,8.15
2023-05-10T08:24:44.324Z,12.55
2023-05-10T08:27:10.616Z,6.18
2023-05-10T08:29:48.839Z,7.47
2023-05-10T08:32:16.122Z,6.10
2023-05-10T08:34:42.430Z,7.15
2023-05-10T08:37:08.772Z,16.83
2023-05-10T08:39:35.709Z,5.90
2023-05-10T08:42:03.075Z,7.22
2023-05-10T08:44:29.921Z,10.60
2023-05-10T08:46:56.740Z,13.75
2023-05-10T08:49:23.852Z,7.00
2023-05-10T08:51:52.414Z,5.63
2023-05-10T08:54:19.147Z,9.95
2023-05-10T08:56:46.882Z,10.27
2023-05-10T08:59:15.136Z,3.97
2023-05-10T09:01:42.780Z,5.38
2023-05-10T09:04:09.186Z,8.85
2023-05-10T09:06:35.893Z,6.75
2023-05-10T09:09:02.466Z,9.52
2023-05-10T09:11:30.078Z,9.38
2023-05-10T09:13:57.017Z,7.90
2023-05-10T09:16:24.150Z,8.40
2023-05-10T09:18:50.679Z,8.73
2023-05-10T09:21:17.108Z,7.93
2023-05-10T09:23:45.168Z,5.10
2023-05-10T09:26:13.408Z,9.98
2023-05-10T09:28:51.921Z,7.72
2023-05-10T09:31:18.428Z,7.13
2023-05-10T09:33:48.279Z,6.32
2023-05-10T09:36:14.850Z,4.17
2023-05-10T09:38:51.845Z,2.92
2023-05-10T09:41:19.144Z,2.15
2023-05-10T09:43:45.644Z,1.90
2023-05-10T09:46:12.446Z,3.78
2023-05-10T09:48:43.004Z,2.13
2023-05-10T09:51:09.227Z,12.20
2023-05-10T09:53:35.466Z,3.83
2023-05-10T09:56:01.707Z,2.83
2023-05-10T09:58:27.961Z,2.92
2023-05-10T10:00:54.725Z,3.13
2023-05-10T10:03:21.602Z,2.00
2023-05-10T10:05:48.672Z,2.97
2023-05-10T10:08:15.684Z,3.30
2023-05-10T10:10:42.236Z,2.47
2023-05-10T10:13:08.885Z,3.17
2023-05-10T10:15:35.874Z,3.63
2023-05-10T10:18:04.581Z,8.82
2023-05-10T10:20:31.107Z,3.95
2023-05-10T10:22:57.415Z,2.83
2023-05-10T10:25:23.955Z,2.40
2023-05-10T10:27:53.056Z,7.40
2023-05-10T10:30:25.098Z,2.70
2023-05-10T10:33:05.585Z,3.38
2023-05-10T10:35:37.625Z,2.53
2023-05-10T10:38:03.867Z,5.82
2023-05-10T10:40:33.608Z,6.85
2023-05-10T10:43:21.065Z,3.38
2023-05-10T10:46:07.316Z,4.60
2023-05-10T10:48:33.669Z,4.25
2023-05-10T10:50:59.976Z,2.08
2023-05-10T10:53:29.640Z,7.88
2023-05-10T10:56:11.634Z,3.50
2023-05-10T10:58:38.875Z,3.75
2023-05-10T11:01:15.612Z,4.93
2023-05-10T11:03:42.726Z,3.10
2023-05-10T11:06:09.610Z,5.18
2023-05-10T11:08:43.117Z,3.83
2023-05-10T11:11:09.801Z,3.03
2023-05-10T11:13:40.612Z,3.13
2023-05-10T11:16:16.120Z,2.08
2023-05-10T11:18:54.055Z,2.92
2023-05-10T11:21:20.391Z,2.85
2023-05-10T11:23:57.489Z,2.13
2023-05-10T11:26:26.345Z,2.47
2023-05-10T11:28:54.456Z,7.38
2023-05-10T11:31:21.223Z,2.65
2023-05-10T11:33:48.478Z,4.05
2023-05-10T11:36:15.718Z,4.07
2023-05-10T11:38:41.979Z,2.58
2023-05-10T11:41:12.416Z,2.83
2023-05-10T11:43:42.580Z,1.85
2023-05-10T11:46:10.492Z,4.50
2023-05-10T11:48:37.373Z,2.22
2023-05-10T11:51:03.667Z,4.03
2023-05-10T11:53:33.223Z,3.38
2023-05-10T11:56:09.125Z,2.10
2023-05-10T11:58:36.234Z,4.45
2023-05-10T12:01:02.921Z,1.77
2023-05-10T12:03:29.644Z,2.92
2023-05-10T12:05:56.760Z,2.60
2023-05-10T12:08:27.416Z,2.60
2023-05-10T12:11:11.198Z,3.15
2023-05-10T12:13:41.368Z,3.92
2023-05-10T12:16:15.059Z,2.97
2023-05-10T12:18:42.279Z,2.05
2023-05-10T12:21:10.217Z,1.63
2023-05-10T12:23:37.181Z,3.83
2023-05-10T12:26:05.173Z,2.00
2023-05-10T12:28:32.372Z,1.58
2023-05-10T12:30:59.803Z,1.77
2023-05-10T12:33:26.385Z,1.50
2023-05-10T12:35:54.380Z,1.13
2023-05-10T12:38:25.942Z,2.08
2023-05-10T12:40:52.190Z,1.10
2023-05-10T12:43:18.422Z,6.03
2023-05-10T12:45:48.876Z,10.25
2023-05-10T12:50:41.610Z,0.88
2023-05-10T12:53:08.063Z,1.10
2023-05-10T12:55:34.310Z,1.10
2023-05-10T12:58:00.832Z,1.30
2023-05-10T13:00:27.193Z,1.60
2023-05-10T13:02:54.032Z,1.00
2023-05-10T13:05:20.289Z,4.68
2023-05-10T13:07:46.538Z,3.00
2023-05-10T13:10:12.796Z,2.25
2023-05-10T13:12:39.057Z,2.88
2023-05-10T13:15:05.579Z,6.05
2023-05-10T13:17:34.034Z,2.00
2023-05-10T13:20:00.702Z,2.80
2023-05-10T13:22:39.199Z,2.28
2023-05-10T13:25:06.653Z,1.80
2023-05-10T13:27:32.886Z,1.95
2023-05-10T13:30:00.278Z,4.88
2023-05-10T13:32:26.876Z,3.28
2023-05-10T13:34:53.161Z,2.65
2023-05-10T13:37:19.395Z,2.17
2023-05-10T13:39:45.618Z,4.35
2023-05-10T13:42:11.844Z,3.53
2023-05-10T13:44:39.656Z,2.88
2023-05-10T13:47:06.110Z,4.07
2023-05-10T13:49:32.621Z,3.70
2023-05-10T13:51:58.964Z,2.30
2023-05-10T13:54:25.313Z,2.40
2023-05-10T13:56:51.965Z,3.83
2023-05-10T13:59:18.234Z,1.83
2023-05-10T14:01:44.620Z,2.20
2023-05-10T14:04:11.616Z,1.67
2023-05-10T14:06:37.917Z,3.35
2023-05-10T14:09:04.334Z,3.17
2023-05-10T14:11:30.664Z,1.77
2023-05-10T14:13:56.893Z,3.85
2023-05-10T14:16:23.440Z,2.05
2023-05-10T14:18:49.748Z,3.17
2023-05-10T14:21:16.324Z,4.28
2023-05-10T14:23:42.635Z,3.13
2023-05-10T14:26:09.522Z,4.30
2023-05-10T14:28:35.796Z,5.55
2023-05-10T14:31:02.475Z,3.97
2023-05-10T14:33:28.834Z,3.92
2023-05-10T14:35:57.430Z,4.35
2023-05-10T14:38:24.278Z,4.93
2023-05-10T14:40:50.539Z,2.45
2023-05-10T14:43:16.790Z,2.95
2023-05-10T14:45:43.046Z,9.55
2023-05-10T14:48:13.027Z,5.72
2023-05-10T14:50:40.471Z,5.63
2023-05-10T14:53:06.825Z,4.78
2023-05-10T14:55:33.687Z,9.00
2023-05-10T14:57:59.987Z,4.68
2023-05-10T15:00:26.953Z,3.80
2023-05-10T15:02:53.750Z,5.03
2023-05-10T15:05:20.405Z,8.38
2023-05-10T15:07:47.086Z,2.60
2023-05-10T15:10:14.784Z,4.70
2023-05-10T15:12:41.237Z,5.68
2023-05-10T15:15:08.074Z,8.35
2023-05-10T15:17:34.535Z,3.25
2023-05-10T15:20:01.249Z,5.28
2023-05-10T15:22:29.124Z,11.48
2023-05-10T15:24:55.657Z,6.40
2023-05-10T15:27:21.944Z,8.15
2023-05-10T15:29:48.261Z,6.53
2023-05-10T15:32:14.552Z,6.57
2023-05-10T15:34:41.059Z,5.38
2023-05-10T15:37:07.344Z,33.08
2023-05-10T15:39:33.697Z,5.50
2023-05-10T15:41:59.936Z,6.10
2023-05-10T15:44:26.288Z,4.05
2023-05-10T15:46:52.759Z,2.92
2023-05-10T15:49:19.195Z,3.30
2023-05-10T15:51:45.601Z,3.70
2023-05-10T15:54:11.890Z,8.88
2023-05-10T15:56:38.273Z,3.85
2023-05-10T15:59:06.070Z,5.63
2023-05-10T16:01:33.001Z,2.50
2023-05-10T16:03:59.388Z,3.30
2023-05-10T16:06:25.638Z,5.05
2023-05-10T16:08:52.908Z,2.22
2023-05-10T16:11:21.504Z,5.97
2023-05-10T16:13:47.974Z,2.38
2023-05-10T16:16:14.455Z,2.30
2023-05-10T16:18:40.993Z,7.28
2023-05-10T16:21:07.635Z,5.38
2023-05-10T16:23:33.868Z,4.85
2023-05-10T16:26:00.207Z,5.57
2023-05-10T16:28:26.442Z,1.33
2023-05-10T16:30:53.014Z,4.35
2023-05-10T16:33:19.330Z,3.08
2023-05-10T16:35:45.791Z,4.28
2023-05-10T16:38:12.694Z,2.67
2023-05-10T16:40:39.301Z,3.42
2023-05-10T16:43:05.571Z,2.90
2023-05-10T16:45:32.549Z,4.82
2023-05-10T16:47:58.928Z,3.03
2023-05-10T16:50:25.226Z,6.45
2023-05-10T16:52:51.624Z,4.75
2023-05-10T16:55:18.192Z,5.85
2023-05-10T16:57:44.651Z,2.72
2023-05-10T17:00:11.921Z,3.38
2023-05-10T17:02:39.206Z,2.50
2023-05-10T17:05:05.609Z,3.28
2023-05-10T17:07:31.935Z,3.50
2023-05-10T17:09:59.298Z,2.10
2023-05-10T17:12:26.013Z,0.82
2023-05-10T17:14:52.298Z,12.38
2023-05-10T17:17:18.695Z,7.47
2023-05-10T17:19:45.429Z,6.68
2023-05-10T17:22:14.773Z,3.75
2023-05-10T17:24:41.066Z,7.85
2023-05-10T17:27:08.181Z,3.30
2023-05-10T17:29:34.526Z,4.60
2023-05-10T17:32:01.065Z,2.47
2023-05-10T17:34:27.491Z,5.15
2023-05-10T17:36:53.810Z,2.28
2023-05-10T17:39:20.111Z,1.65
2023-05-10T17:41:46.449Z,2.10
2023-05-10T17:44:13.973Z,3.72
2023-05-10T17:46:40.535Z,2.40
2023-05-10T17:49:07.091Z,2.20
2023-05-10T17:51:33.399Z,5.13
2023-05-10T17:54:00.014Z,5.40
2023-05-10T17:56:26.319Z,1.92
2023-05-10T17:58:52.699Z,3.67
2023-05-10T18:01:19.591Z,5.28
2023-05-10T18:03:46.436Z,4.28
2023-05-10T18:06:12.777Z,2.65
2023-05-10T18:08:39.226Z,2.13
2023-05-10T18:11:05.585Z,2.50
2023-05-10T18:13:32.053Z,2.92
2023-05-10T18:15:58.392Z,3.22
2023-05-10T18:18:25.273Z,1.83
2023-05-10T18:20:56.568Z,3.72
2023-05-10T18:23:23.468Z,2.78
2023-05-10T18:25:50.105Z,2.60
2023-05-10T18:28:16.455Z,2.58
2023-05-10T18:30:42.796Z,4.40
2023-05-10T18:33:11.528Z,4.70
2023-05-10T18:35:38.628Z,2.53
2023-05-10T18:38:05.044Z,2.42
2023-05-10T18:40:31.351Z,8.63
2023-05-10T18:42:58.166Z,2.45
2023-05-10T18:45:24.469Z,3.88
2023-05-10T18:47:50.817Z,6.32
2023-05-10T18:50:17.477Z,4.80
2023-05-10T18:52:43.793Z,2.45
2023-05-10T18:55:10.269Z,4.43
2023-05-10T18:57:41.676Z,6.03
2023-05-10T19:00:10.190Z,5.97
2023-05-10T19:02:36.991Z,2.88
2023-05-10T19:05:03.421Z,5.20
2023-05-10T19:07:29.727Z,5.03
2023-05-10T19:09:56.204Z,10.63
2023-05-10T19:12:22.541Z,8.40
2023-05-10T19:14:48.858Z,8.77
2023-05-10T19:17:17.451Z,10.48
2023-05-10T19:19:44.691Z,8.43
2023-05-10T19:22:12.618Z,7.78
2023-05-10T19:24:38.938Z,11.38
2023-05-10T19:27:05.327Z,12.10
2023-05-10T19:29:32.012Z,10.77
2023-05-10T19:31:58.406Z,13.75
2023-05-10T19:34:24.880Z,13.60
2023-05-10T19:36:51.112Z,10.55
2023-05-10T19:39:17.357Z,9.77
2023-05-10T19:41:44.244Z,18.83
2023-05-10T19:44:10.624Z,16.58
2023-05-10T19:46:36.965Z,15.00
2023-05-10T19:49:03.349Z,14.15
2023-05-10T19:51:29.685Z,12.98
2023-05-10T19:53:56.029Z,14.07
2023-05-10T19:56:22.449Z,20.33
2023-05-10T19:58:48.771Z,15.55
2023-05-10T20:01:15.109Z,15.77
2023-05-10T20:03:41.482Z,15.38
2023-05-10T20:06:08.191Z,17.38
2023-05-10T20:08:34.559Z,14.02
2023-05-10T20:11:02.612Z,18.38
2023-05-10T20:13:29.243Z,16.02
2023-05-10T20:15:56.366Z,16.65
2023-05-10T20:18:22.914Z,15.85
2023-05-10T20:20:52.961Z,15.40
2023-05-10T20:23:19.278Z,19.02
2023-05-10T20:25:45.583Z,20.02
2023-05-10T20:28:13.045Z,13.90
2023-05-10T20:30:39.439Z,14.68
2023-05-10T20:33:05.927Z,15.50
2023-05-10T20:35:32.972Z,17.00
2023-05-10T20:37:59.955Z,15.20
2023-05-10T20:40:26.193Z,15.93
2023-05-10T20:42:54.007Z,18.30
2023-05-10T20:45:20.357Z,18.77
2023-05-10T20:47:46.676Z,16.80
2023-05-10T20:50:13.035Z,24.27
2023-05-10T20:52:39.594Z,18.15
2023-05-10T20:55:06.296Z,17.85
2023-05-10T20:57:32.538Z,12.93
2023-05-10T20:59:58.820Z,17.40
2023-05-10T21:02:25.292Z,18.13
2023-05-10T21:04:51.638Z,13.02
2023-05-10T21:07:18.022Z,16.15
2023-05-10T21:09:44.291Z,17.13
2023-05-10T21:12:10.882Z,15.95
2023-05-10T21:14:37.174Z,20.92
2023-05-10T21:17:03.520Z,17.70
2023-05-10T21:19:29.805Z,16.50
2023-05-10T21:21:57.281Z,20.58
2023-05-10T21:24:23.615Z,19.85
2023-05-10T21:26:49.932Z,27.58
2023-05-10T21:29:16.252Z,16.50
2023-05-10T21:31:42.740Z,21.67
2023-05-10T21:34:09.051Z,18.38
2023-05-10T21:36:35.270Z,16.27
2023-05-10T21:39:01.575Z,20.80
2023-05-10T21:41:28.861Z,20.13
2023-05-10T21:43:56.276Z,20.63
2023-05-10T21:46:22.834Z,21.50
2023-05-10T21:48:49.145Z,20.77
2023-05-10T21:51:15.600Z,21.52
2023-05-10T21:53:41.886Z,18.52
2023-05-10T21:56:08.199Z,22.58
2023-05-10T21:58:34.562Z,20.65
2023-05-10T22:01:00.928Z,16.83
2023-05-10T22:03:27.369Z,17.80
2023-05-10T22:05:53.780Z,19.48
2023-05-10T22:08:20.061Z,19.48
2023-05-10T22:10:46.394Z,14.90
2023-05-10T22:13:12.677Z,24.02
2023-05-10T22:15:39.350Z,21.52
2023-05-10T22:18:06.005Z,19.52
2023-05-10T22:20:32.354Z,16.23
2023-05-10T22:22:58.749Z,17.30
2023-05-10T22:25:25.008Z,18.13
2023-05-10T22:27:51.488Z,20.88
2023-05-10T22:30:18.054Z,18.88
2023-05-10T22:32:44.607Z,24.60
2023-05-10T22:35:10.999Z,29.33
2023-05-10T22:37:37.211Z,23.65
2023-05-10T22:40:03.971Z,21.50
2023-05-10T22:42:30.348Z,22.15
2023-05-10T22:44:56.650Z,25.58
2023-05-10T22:47:22.944Z,24.25
2023-05-10T22:49:49.186Z,21.15
2023-05-10T22:52:15.507Z,21.40
2023-05-10T22:54:41.781Z,22.70
2023-05-10T22:57:08.277Z,24.92
2023-05-10T22:59:34.682Z,26.77
2023-05-10T23:02:00.975Z,20.52
2023-05-10T23:04:27.325Z,22.27
2023-05-10T23:06:53.683Z,26.33
2023-05-10T23:09:19.939Z,28.20
2023-05-10T23:11:46.352Z,26.20
2023-05-10T23:14:12.657Z,27.00
2023-05-10T23:16:39.164Z,30.70
2023-05-10T23:19:05.457Z,24.52
2023-05-10T23:21:32.313Z,22.70
2023-05-10T23:23:58.769Z,24.35
2023-05-10T23:26:25.119Z,28.20
2023-05-10T23:28:51.504Z,28.80
2023-05-10T23:31:17.768Z,27.10
2023-05-10T23:33:44.072Z,30.02
2023-05-10T23:36:10.367Z,29.83
2023-05-10T23:38:37.814Z,29.63
2023-05-10T23:41:04.201Z,27.42
2023-05-10T23:43:30.608Z,25.67
2023-05-10T23:45:57.569Z,28.83
2023-05-10T23:48:24.031Z,26.52
2023-05-10T23:50:50.617Z,26.48
2023-05-10T23:53:16.944Z,22.70
2023-05-10T23:55:43.319Z,28.13
2023-05-10T23:58:09.636Z,26.65
